Terminal Aerodrome Forecast
Issued by NWS Charleston, WV

Current Version | Previous Version | Graphics & Text | Print | Product List | Glossary On
Versions: 1 2 3 4 5 6 7 8 9 10 11 12 13 14 15 16 17 18 19 20 21 22 23 24 25
000
FTUS41 KRLX 290244 AAA
TAFHTS
TAF AMD
KHTS 290244Z 2903/2924 00000KT P6SM BKN150
     FM290700 00000KT 6SM BR SCT100
     FM291400 00000KT P6SM BKN070
     FM291800 20004KT P6SM VCTS BKN035CB=

USA.gov is the U.S. government's official web portal to all federal, state and local government web resources and services.